sensor_id;sensor_type;location;lat;lon;timestamp;P1;durP1;ratioP1;P2;durP2;ratioP2
79747;SDS011;69232;47.488;19.268;2023-10-19T00:00:33;11.80;;;6.65;;
79747;SDS011;69232;47.488;19.268;2023-10-19T00:03:04;13.18;;;6.90;;
79747;SDS011;69232;47.488;19.268;2023-10-19T00:05:31;11.93;;;6.32;;
79747;SDS011;69232;47.488;19.268;2023-10-19T00:07:58;14.10;;;6.53;;
79747;SDS011;69232;47.488;19.268;2023-10-19T00:10:25;14.63;;;6.75;;
79747;SDS011;69232;47.488;19.268;2023-10-19T00:12:54;14.90;;;6.70;;
79747;SDS011;69232;47.488;19.268;2023-10-19T00:15:28;17.80;;;7.07;;
79747;SDS011;69232;47.488;19.268;2023-10-19T00:17:57;12.73;;;7.20;;
79747;SDS011;69232;47.488;19.268;2023-10-19T00:20:24;14.55;;;7.22;;
79747;SDS011;69232;47.488;19.268;2023-10-19T00:22:52;14.93;;;6.90;;
79747;SDS011;69232;47.488;19.268;2023-10-19T00:25:18;13.10;;;6.43;;
79747;SDS011;69232;47.488;19.268;2023-10-19T00:27:44;15.30;;;7.00;;
79747;SDS011;69232;47.488;19.268;2023-10-19T00:30:10;12.68;;;6.50;;
79747;SDS011;69232;47.488;19.268;2023-10-19T00:32:44;15.15;;;7.03;;
79747;SDS011;69232;47.488;19.268;2023-10-19T00:35:12;11.35;;;6.95;;
79747;SDS011;69232;47.488;19.268;2023-10-19T00:38:07;10.85;;;6.35;;
79747;SDS011;69232;47.488;19.268;2023-10-19T00:40:51;11.70;;;6.78;;
79747;SDS011;69232;47.488;19.268;2023-10-19T00:43:29;16.15;;;6.20;;
79747;SDS011;69232;47.488;19.268;2023-10-19T00:45:59;15.90;;;7.13;;
79747;SDS011;69232;47.488;19.268;2023-10-19T00:48:35;14.20;;;7.05;;
79747;SDS011;69232;47.488;19.268;2023-10-19T00:51:02;10.80;;;6.72;;
79747;SDS011;69232;47.488;19.268;2023-10-19T00:53:52;16.98;;;7.85;;
79747;SDS011;69232;47.488;19.268;2023-10-19T00:59:15;15.18;;;6.80;;
79747;SDS011;69232;47.488;19.268;2023-10-19T01:01:55;16.48;;;6.90;;
79747;SDS011;69232;47.488;19.268;2023-10-19T01:04:29;12.77;;;6.97;;
79747;SDS011;69232;47.488;19.268;2023-10-19T01:06:59;13.60;;;6.60;;
79747;SDS011;69232;47.488;19.268;2023-10-19T01:09:36;17.92;;;7.82;;
79747;SDS011;69232;47.488;19.268;2023-10-19T01:12:04;16.90;;;7.60;;
79747;SDS011;69232;47.488;19.268;2023-10-19T01:17:55;16.67;;;7.60;;
79747;SDS011;69232;47.488;19.268;2023-10-19T01:20:26;18.15;;;8.18;;
79747;SDS011;69232;47.488;19.268;2023-10-19T01:22:55;20.40;;;8.70;;
79747;SDS011;69232;47.488;19.268;2023-10-19T01:25:50;16.33;;;8.40;;
79747;SDS011;69232;47.488;19.268;2023-10-19T01:28:23;15.32;;;8.10;;
79747;SDS011;69232;47.488;19.268;2023-10-19T01:30:53;15.75;;;8.85;;
79747;SDS011;69232;47.488;19.268;2023-10-19T01:33:19;19.70;;;9.40;;
79747;SDS011;69232;47.488;19.268;2023-10-19T01:35:45;15.65;;;8.05;;
79747;SDS011;69232;47.488;19.268;2023-10-19T01:38:29;18.17;;;9.10;;
79747;SDS011;69232;47.488;19.268;2023-10-19T01:40:58;19.02;;;9.05;;
79747;SDS011;69232;47.488;19.268;2023-10-19T01:43:27;20.48;;;10.55;;
79747;SDS011;69232;47.488;19.268;2023-10-19T01:45:56;18.73;;;9.48;;
79747;SDS011;69232;47.488;19.268;2023-10-19T01:48:37;23.20;;;10.45;;
79747;SDS011;69232;47.488;19.268;2023-10-19T01:51:13;20.50;;;9.65;;
79747;SDS011;69232;47.488;19.268;2023-10-19T01:53:40;17.50;;;9.55;;
79747;SDS011;69232;47.488;19.268;2023-10-19T01:56:09;20.25;;;9.90;;
79747;SDS011;69232;47.488;19.268;2023-10-19T01:58:39;19.02;;;10.02;;
79747;SDS011;69232;47.488;19.268;2023-10-19T02:01:06;22.45;;;9.65;;
79747;SDS011;69232;47.488;19.268;2023-10-19T02:03:37;22.40;;;10.00;;
79747;SDS011;69232;47.488;19.268;2023-10-19T02:06:07;23.88;;;10.70;;
79747;SDS011;69232;47.488;19.268;2023-10-19T02:08:43;21.75;;;11.18;;
79747;SDS011;69232;47.488;19.268;2023-10-19T02:11:10;20.38;;;10.60;;
79747;SDS011;69232;47.488;19.268;2023-10-19T02:13:43;24.42;;;10.68;;
79747;SDS011;69232;47.488;19.268;2023-10-19T02:16:11;29.60;;;10.98;;
79747;SDS011;69232;47.488;19.268;2023-10-19T02:18:39;20.35;;;10.75;;
79747;SDS011;69232;47.488;19.268;2023-10-19T02:21:05;25.00;;;11.35;;
79747;SDS011;69232;47.488;19.268;2023-10-19T02:23:31;25.08;;;11.10;;
79747;SDS011;69232;47.488;19.268;2023-10-19T02:25:59;23.80;;;11.43;;
79747;SDS011;69232;47.488;19.268;2023-10-19T02:28:25;23.80;;;11.25;;
79747;SDS011;69232;47.488;19.268;2023-10-19T02:30:56;21.75;;;11.15;;
79747;SDS011;69232;47.488;19.268;2023-10-19T02:33:36;24.35;;;11.25;;
79747;SDS011;69232;47.488;19.268;2023-10-19T02:36:02;23.83;;;11.20;;
79747;SDS011;69232;47.488;19.268;2023-10-19T02:38:28;21.52;;;11.25;;
79747;SDS011;69232;47.488;19.268;2023-10-19T02:40:55;22.70;;;12.50;;
79747;SDS011;69232;47.488;19.268;2023-10-19T02:43:20;23.20;;;11.45;;
79747;SDS011;69232;47.488;19.268;2023-10-19T02:45:49;23.17;;;11.43;;
79747;SDS011;69232;47.488;19.268;2023-10-19T02:48:14;22.90;;;11.93;;
79747;SDS011;69232;47.488;19.268;2023-10-19T02:50:41;23.15;;;12.50;;
79747;SDS011;69232;47.488;19.268;2023-10-19T02:53:06;20.75;;;11.10;;
79747;SDS011;69232;47.488;19.268;2023-10-19T02:55:31;22.58;;;11.23;;
79747;SDS011;69232;47.488;19.268;2023-10-19T02:57:57;24.13;;;11.20;;
79747;SDS011;69232;47.488;19.268;2023-10-19T03:00:24;28.38;;;12.60;;
79747;SDS011;69232;47.488;19.268;2023-10-19T03:02:57;24.85;;;10.88;;
79747;SDS011;69232;47.488;19.268;2023-10-19T03:05:25;23.17;;;11.60;;
79747;SDS011;69232;47.488;19.268;2023-10-19T03:07:51;27.88;;;12.38;;
79747;SDS011;69232;47.488;19.268;2023-10-19T03:10:17;26.17;;;12.63;;
79747;SDS011;69232;47.488;19.268;2023-10-19T03:12:59;24.67;;;12.50;;
79747;SDS011;69232;47.488;19.268;2023-10-19T03:15:24;26.77;;;12.10;;
79747;SDS011;69232;47.488;19.268;2023-10-19T03:17:50;24.85;;;11.57;;
79747;SDS011;69232;47.488;19.268;2023-10-19T03:20:15;24.90;;;11.55;;
79747;SDS011;69232;47.488;19.268;2023-10-19T03:22:43;23.40;;;11.38;;
79747;SDS011;69232;47.488;19.268;2023-10-19T03:25:11;22.15;;;11.32;;
79747;SDS011;69232;47.488;19.268;2023-10-19T03:27:56;24.08;;;12.30;;
79747;SDS011;69232;47.488;19.268;2023-10-19T03:30:22;24.58;;;11.82;;
79747;SDS011;69232;47.488;19.268;2023-10-19T03:32:50;24.13;;;11.73;;
79747;SDS011;69232;47.488;19.268;2023-10-19T03:35:16;26.23;;;11.98;;
79747;SDS011;69232;47.488;19.268;2023-10-19T03:37:41;24.13;;;10.98;;
79747;SDS011;69232;47.488;19.268;2023-10-19T03:40:07;25.77;;;11.60;;
79747;SDS011;69232;47.488;19.268;2023-10-19T03:42:35;20.75;;;11.95;;
79747;SDS011;69232;47.488;19.268;2023-10-19T03:45:06;21.60;;;11.13;;
79747;SDS011;69232;47.488;19.268;2023-10-19T03:47:38;29.33;;;10.98;;
79747;SDS011;69232;47.488;19.268;2023-10-19T03:50:04;24.30;;;12.27;;
79747;SDS011;69232;47.488;19.268;2023-10-19T03:52:36;29.15;;;12.68;;
79747;SDS011;69232;47.488;19.268;2023-10-19T03:55:04;24.17;;;11.65;;
79747;SDS011;69232;47.488;19.268;2023-10-19T03:57:36;21.33;;;11.07;;
79747;SDS011;69232;47.488;19.268;2023-10-19T04:00:06;21.50;;;10.60;;
79747;SDS011;69232;47.488;19.268;2023-10-19T04:02:41;23.20;;;11.93;;
79747;SDS011;69232;47.488;19.268;2023-10-19T04:05:07;24.10;;;12.50;;
79747;SDS011;69232;47.488;19.268;2023-10-19T04:07:35;30.63;;;14.65;;
79747;SDS011;69232;47.488;19.268;2023-10-19T04:10:01;28.98;;;13.63;;
79747;SDS011;69232;47.488;19.268;2023-10-19T04:12:32;21.45;;;12.80;;
79747;SDS011;69232;47.488;19.268;2023-10-19T04:15:00;29.20;;;12.55;;
79747;SDS011;69232;47.488;19.268;2023-10-19T04:17:37;23.13;;;11.80;;
79747;SDS011;69232;47.488;19.268;2023-10-19T04:20:04;25.08;;;13.82;;
79747;SDS011;69232;47.488;19.268;2023-10-19T04:22:39;25.67;;;12.75;;
79747;SDS011;69232;47.488;19.268;2023-10-19T04:25:05;28.83;;;12.73;;
79747;SDS011;69232;47.488;19.268;2023-10-19T04:27:31;29.77;;;13.27;;
79747;SDS011;69232;47.488;19.268;2023-10-19T04:30:00;29.70;;;13.75;;
79747;SDS011;69232;47.488;19.268;2023-10-19T04:32:26;28.75;;;13.82;;
79747;SDS011;69232;47.488;19.268;2023-10-19T04:34:55;28.48;;;12.77;;
79747;SDS011;69232;47.488;19.268;2023-10-19T04:37:20;26.10;;;13.35;;
79747;SDS011;69232;47.488;19.268;2023-10-19T04:39:48;22.58;;;11.30;;
79747;SDS011;69232;47.488;19.268;2023-10-19T04:42:14;24.58;;;12.50;;
79747;SDS011;69232;47.488;19.268;2023-10-19T04:44:40;26.50;;;13.95;;
79747;SDS011;69232;47.488;19.268;2023-10-19T04:47:05;23.67;;;12.68;;
79747;SDS011;69232;47.488;19.268;2023-10-19T04:49:31;28.15;;;13.93;;
79747;SDS011;69232;47.488;19.268;2023-10-19T04:51:56;29.80;;;13.10;;
79747;SDS011;69232;47.488;19.268;2023-10-19T04:54:21;29.90;;;13.68;;
79747;SDS011;69232;47.488;19.268;2023-10-19T04:56:47;25.08;;;13.45;;
79747;SDS011;69232;47.488;19.268;2023-10-19T04:59:13;31.17;;;14.63;;
79747;SDS011;69232;47.488;19.268;2023-10-19T05:01:38;30.58;;;14.35;;
79747;SDS011;69232;47.488;19.268;2023-10-19T05:04:05;21.67;;;11.85;;
79747;SDS011;69232;47.488;19.268;2023-10-19T05:06:31;25.63;;;13.43;;
79747;SDS011;69232;47.488;19.268;2023-10-19T05:08:56;26.23;;;13.07;;
79747;SDS011;69232;47.488;19.268;2023-10-19T05:11:22;27.52;;;13.30;;
79747;SDS011;69232;47.488;19.268;2023-10-19T05:13:47;30.15;;;14.65;;
79747;SDS011;69232;47.488;19.268;2023-10-19T05:16:13;25.92;;;13.00;;
79747;SDS011;69232;47.488;19.268;2023-10-19T05:18:39;27.45;;;13.88;;
79747;SDS011;69232;47.488;19.268;2023-10-19T05:21:04;32.42;;;13.27;;
79747;SDS011;69232;47.488;19.268;2023-10-19T05:23:30;24.92;;;12.70;;
79747;SDS011;69232;47.488;19.268;2023-10-19T05:26:00;26.33;;;14.05;;
79747;SDS011;69232;47.488;19.268;2023-10-19T05:28:27;27.38;;;14.10;;
79747;SDS011;69232;47.488;19.268;2023-10-19T05:30:53;30.80;;;14.63;;
79747;SDS011;69232;47.488;19.268;2023-10-19T05:33:19;30.98;;;14.13;;
79747;SDS011;69232;47.488;19.268;2023-10-19T05:35:49;28.55;;;13.90;;
79747;SDS011;69232;47.488;19.268;2023-10-19T05:38:15;26.52;;;13.30;;
79747;SDS011;69232;47.488;19.268;2023-10-19T05:40:41;26.63;;;14.80;;
79747;SDS011;69232;47.488;19.268;2023-10-19T05:43:08;26.30;;;13.60;;
79747;SDS011;69232;47.488;19.268;2023-10-19T05:45:34;26.10;;;13.88;;
79747;SDS011;69232;47.488;19.268;2023-10-19T05:48:01;34.03;;;14.70;;
79747;SDS011;69232;47.488;19.268;2023-10-19T05:50:29;26.35;;;14.05;;
79747;SDS011;69232;47.488;19.268;2023-10-19T05:52:54;24.70;;;13.25;;
79747;SDS011;69232;47.488;19.268;2023-10-19T05:55:20;27.35;;;13.80;;
79747;SDS011;69232;47.488;19.268;2023-10-19T05:57:46;28.15;;;14.80;;
79747;SDS011;69232;47.488;19.268;2023-10-19T06:00:12;28.50;;;13.07;;
79747;SDS011;69232;47.488;19.268;2023-10-19T06:02:47;26.77;;;13.50;;
79747;SDS011;69232;47.488;19.268;2023-10-19T06:05:16;24.75;;;12.60;;
79747;SDS011;69232;47.488;19.268;2023-10-19T06:07:43;26.75;;;13.77;;
79747;SDS011;69232;47.488;19.268;2023-10-19T06:10:12;28.75;;;12.93;;
79747;SDS011;69232;47.488;19.268;2023-10-19T06:12:42;27.73;;;12.90;;
79747;SDS011;69232;47.488;19.268;2023-10-19T06:15:12;26.20;;;12.77;;
79747;SDS011;69232;47.488;19.268;2023-10-19T06:17:41;25.38;;;13.38;;
79747;SDS011;69232;47.488;19.268;2023-10-19T06:20:08;26.85;;;12.35;;
79747;SDS011;69232;47.488;19.268;2023-10-19T06:22:48;25.50;;;13.48;;
79747;SDS011;69232;47.488;19.268;2023-10-19T06:25:20;29.33;;;13.02;;
79747;SDS011;69232;47.488;19.268;2023-10-19T06:27:49;29.10;;;13.10;;
79747;SDS011;69232;47.488;19.268;2023-10-19T06:30:15;25.00;;;12.65;;
79747;SDS011;69232;47.488;19.268;2023-10-19T06:32:50;23.30;;;12.15;;
79747;SDS011;69232;47.488;19.268;2023-10-19T06:35:18;26.05;;;13.15;;
79747;SDS011;69232;47.488;19.268;2023-10-19T06:37:46;24.23;;;12.48;;
79747;SDS011;69232;47.488;19.268;2023-10-19T06:40:13;25.13;;;12.68;;
79747;SDS011;69232;47.488;19.268;2023-10-19T06:42:43;22.10;;;11.75;;
79747;SDS011;69232;47.488;19.268;2023-10-19T06:45:10;25.55;;;12.73;;
79747;SDS011;69232;47.488;19.268;2023-10-19T06:47:39;25.52;;;11.63;;
79747;SDS011;69232;47.488;19.268;2023-10-19T06:50:08;27.30;;;12.80;;
79747;SDS011;69232;47.488;19.268;2023-10-19T06:52:35;24.33;;;13.10;;
79747;SDS011;69232;47.488;19.268;2023-10-19T06:55:05;23.45;;;12.95;;
79747;SDS011;69232;47.488;19.268;2023-10-19T06:57:38;23.92;;;12.60;;
79747;SDS011;69232;47.488;19.268;2023-10-19T07:00:10;22.35;;;12.32;;
79747;SDS011;69232;47.488;19.268;2023-10-19T07:02:47;27.80;;;12.88;;
79747;SDS011;69232;47.488;19.268;2023-10-19T07:05:13;28.02;;;13.45;;
79747;SDS011;69232;47.488;19.268;2023-10-19T07:07:44;27.30;;;12.77;;
79747;SDS011;69232;47.488;19.268;2023-10-19T07:10:10;28.67;;;13.82;;
79747;SDS011;69232;47.488;19.268;2023-10-19T07:12:40;27.63;;;14.25;;
79747;SDS011;69232;47.488;19.268;2023-10-19T07:15:07;31.13;;;13.18;;
79747;SDS011;69232;47.488;19.268;2023-10-19T07:17:37;25.77;;;12.50;;
79747;SDS011;69232;47.488;19.268;2023-10-19T07:20:03;33.17;;;14.98;;
79747;SDS011;69232;47.488;19.268;2023-10-19T07:22:31;30.02;;;14.77;;
79747;SDS011;69232;47.488;19.268;2023-10-19T07:24:57;29.13;;;14.15;;
79747;SDS011;69232;47.488;19.268;2023-10-19T07:27:23;25.65;;;12.77;;
79747;SDS011;69232;47.488;19.268;2023-10-19T07:29:52;23.52;;;12.93;;
79747;SDS011;69232;47.488;19.268;2023-10-19T07:32:18;27.95;;;13.82;;
79747;SDS011;69232;47.488;19.268;2023-10-19T07:34:43;30.60;;;13.85;;
79747;SDS011;69232;47.488;19.268;2023-10-19T07:37:11;27.65;;;13.15;;
79747;SDS011;69232;47.488;19.268;2023-10-19T07:39:49;32.17;;;13.60;;
79747;SDS011;69232;47.488;19.268;2023-10-19T07:42:17;27.45;;;13.70;;
79747;SDS011;69232;47.488;19.268;2023-10-19T07:44:42;29.98;;;13.00;;
79747;SDS011;69232;47.488;19.268;2023-10-19T07:47:08;27.80;;;12.57;;
79747;SDS011;69232;47.488;19.268;2023-10-19T07:49:35;30.50;;;13.68;;
79747;SDS011;69232;47.488;19.268;2023-10-19T07:52:04;32.17;;;13.65;;
79747;SDS011;69232;47.488;19.268;2023-10-19T07:54:35;30.48;;;14.18;;
79747;SDS011;69232;47.488;19.268;2023-10-19T07:57:03;29.42;;;14.60;;
79747;SDS011;69232;47.488;19.268;2023-10-19T07:59:32;29.70;;;13.68;;
79747;SDS011;69232;47.488;19.268;2023-10-19T08:01:58;32.72;;;15.20;;
79747;SDS011;69232;47.488;19.268;2023-10-19T08:04:27;30.85;;;14.93;;
79747;SDS011;69232;47.488;19.268;2023-10-19T08:06:53;31.13;;;13.88;;
79747;SDS011;69232;47.488;19.268;2023-10-19T08:09:19;28.80;;;14.00;;
79747;SDS011;69232;47.488;19.268;2023-10-19T08:11:48;34.78;;;14.50;;
79747;SDS011;69232;47.488;19.268;2023-10-19T08:14:21;29.48;;;14.25;;
79747;SDS011;69232;47.488;19.268;2023-10-19T08:16:49;32.63;;;14.55;;
79747;SDS011;69232;47.488;19.268;2023-10-19T08:19:14;29.17;;;13.20;;
79747;SDS011;69232;47.488;19.268;2023-10-19T08:21:40;29.02;;;13.32;;
79747;SDS011;69232;47.488;19.268;2023-10-19T08:24:06;35.72;;;18.05;;
79747;SDS011;69232;47.488;19.268;2023-10-19T08:26:31;31.10;;;14.95;;
79747;SDS011;69232;47.488;19.268;2023-10-19T08:28:57;29.23;;;14.68;;
79747;SDS011;69232;47.488;19.268;2023-10-19T08:31:25;29.42;;;14.57;;
79747;SDS011;69232;47.488;19.268;2023-10-19T08:33:51;30.40;;;14.70;;
79747;SDS011;69232;47.488;19.268;2023-10-19T08:36:17;30.90;;;15.25;;
79747;SDS011;69232;47.488;19.268;2023-10-19T08:38:44;33.25;;;15.45;;
79747;SDS011;69232;47.488;19.268;2023-10-19T08:41:11;32.83;;;14.52;;
79747;SDS011;69232;47.488;19.268;2023-10-19T08:43:36;31.13;;;15.18;;
79747;SDS011;69232;47.488;19.268;2023-10-19T08:46:05;34.15;;;15.05;;
79747;SDS011;69232;47.488;19.268;2023-10-19T08:48:33;37.08;;;15.68;;
79747;SDS011;69232;47.488;19.268;2023-10-19T08:50:59;31.60;;;15.15;;
79747;SDS011;69232;47.488;19.268;2023-10-19T08:53:27;33.35;;;14.65;;
79747;SDS011;69232;47.488;19.268;2023-10-19T08:55:53;31.77;;;14.23;;
79747;SDS011;69232;47.488;19.268;2023-10-19T08:58:19;31.48;;;15.02;;
79747;SDS011;69232;47.488;19.268;2023-10-19T09:00:49;31.58;;;14.63;;
79747;SDS011;69232;47.488;19.268;2023-10-19T09:03:21;29.98;;;13.32;;
79747;SDS011;69232;47.488;19.268;2023-10-19T09:05:47;29.48;;;13.73;;
79747;SDS011;69232;47.488;19.268;2023-10-19T09:08:16;35.97;;;14.93;;
79747;SDS011;69232;47.488;19.268;2023-10-19T09:10:42;30.65;;;14.65;;
79747;SDS011;69232;47.488;19.268;2023-10-19T09:13:10;30.63;;;13.88;;
79747;SDS011;69232;47.488;19.268;2023-10-19T09:15:37;32.30;;;14.57;;
79747;SDS011;69232;47.488;19.268;2023-10-19T09:20:42;34.60;;;15.50;;
79747;SDS011;69232;47.488;19.268;2023-10-19T09:23:18;27.80;;;13.70;;
79747;SDS011;69232;47.488;19.268;2023-10-19T09:25:44;32.33;;;14.27;;
79747;SDS011;69232;47.488;19.268;2023-10-19T09:28:09;35.55;;;16.58;;
79747;SDS011;69232;47.488;19.268;2023-10-19T09:30:38;32.50;;;14.98;;
79747;SDS011;69232;47.488;19.268;2023-10-19T09:33:05;31.42;;;14.68;;
79747;SDS011;69232;47.488;19.268;2023-10-19T09:35:32;32.97;;;15.07;;
79747;SDS011;69232;47.488;19.268;2023-10-19T09:37:59;35.90;;;15.40;;
79747;SDS011;69232;47.488;19.268;2023-10-19T09:40:25;41.00;;;17.10;;
79747;SDS011;69232;47.488;19.268;2023-10-19T09:42:53;35.58;;;14.25;;
79747;SDS011;69232;47.488;19.268;2023-10-19T09:45:22;30.48;;;14.70;;
79747;SDS011;69232;47.488;19.268;2023-10-19T09:47:50;32.00;;;15.35;;
79747;SDS011;69232;47.488;19.268;2023-10-19T09:50:16;33.30;;;16.13;;
79747;SDS011;69232;47.488;19.268;2023-10-19T09:52:41;33.00;;;16.48;;
79747;SDS011;69232;47.488;19.268;2023-10-19T09:55:24;30.88;;;15.60;;
79747;SDS011;69232;47.488;19.268;2023-10-19T10:00:49;31.27;;;14.52;;
79747;SDS011;69232;47.488;19.268;2023-10-19T10:06:26;27.65;;;13.27;;
79747;SDS011;69232;47.488;19.268;2023-10-19T10:08:53;25.50;;;13.05;;
79747;SDS011;69232;47.488;19.268;2023-10-19T10:11:25;20.23;;;10.90;;
79747;SDS011;69232;47.488;19.268;2023-10-19T10:13:52;28.35;;;13.68;;
79747;SDS011;69232;47.488;19.268;2023-10-19T10:16:20;32.78;;;16.17;;
79747;SDS011;69232;47.488;19.268;2023-10-19T10:18:48;29.92;;;14.30;;
79747;SDS011;69232;47.488;19.268;2023-10-19T10:21:22;30.30;;;14.55;;
79747;SDS011;69232;47.488;19.268;2023-10-19T10:24:00;28.85;;;13.05;;
79747;SDS011;69232;47.488;19.268;2023-10-19T10:26:28;33.95;;;15.63;;
79747;SDS011;69232;47.488;19.268;2023-10-19T10:29:14;26.58;;;12.98;;
79747;SDS011;69232;47.488;19.268;2023-10-19T10:31:48;28.77;;;12.95;;
79747;SDS011;69232;47.488;19.268;2023-10-19T10:36:59;31.55;;;14.50;;
79747;SDS011;69232;47.488;19.268;2023-10-19T10:39:29;30.02;;;13.68;;
79747;SDS011;69232;47.488;19.268;2023-10-19T10:42:00;28.58;;;14.48;;
79747;SDS011;69232;47.488;19.268;2023-10-19T10:44:40;32.08;;;16.10;;
79747;SDS011;69232;47.488;19.268;2023-10-19T10:49:34;29.98;;;15.25;;
79747;SDS011;69232;47.488;19.268;2023-10-19T10:52:10;31.08;;;15.68;;
79747;SDS011;69232;47.488;19.268;2023-10-19T10:54:36;32.70;;;15.38;;
79747;SDS011;69232;47.488;19.268;2023-10-19T10:57:02;29.63;;;15.68;;
79747;SDS011;69232;47.488;19.268;2023-10-19T10:59:27;31.33;;;16.23;;
79747;SDS011;69232;47.488;19.268;2023-10-19T11:01:53;32.47;;;16.60;;
79747;SDS011;69232;47.488;19.268;2023-10-19T11:04:18;31.15;;;16.48;;
79747;SDS011;69232;47.488;19.268;2023-10-19T11:06:47;30.10;;;16.27;;
79747;SDS011;69232;47.488;19.268;2023-10-19T11:09:16;36.13;;;16.30;;
79747;SDS011;69232;47.488;19.268;2023-10-19T11:11:46;29.92;;;15.02;;
79747;SDS011;69232;47.488;19.268;2023-10-19T11:14:12;32.08;;;16.63;;
79747;SDS011;69232;47.488;19.268;2023-10-19T11:16:38;30.83;;;15.25;;
79747;SDS011;69232;47.488;19.268;2023-10-19T11:19:04;34.10;;;16.05;;
79747;SDS011;69232;47.488;19.268;2023-10-19T11:21:30;33.55;;;16.00;;
79747;SDS011;69232;47.488;19.268;2023-10-19T11:23:56;33.10;;;15.18;;
79747;SDS011;69232;47.488;19.268;2023-10-19T11:26:23;31.92;;;15.90;;
79747;SDS011;69232;47.488;19.268;2023-10-19T11:28:59;34.60;;;15.85;;
79747;SDS011;69232;47.488;19.268;2023-10-19T11:31:35;31.35;;;14.95;;
79747;SDS011;69232;47.488;19.268;2023-10-19T11:34:03;27.25;;;14.57;;
79747;SDS011;69232;47.488;19.268;2023-10-19T11:36:29;33.10;;;15.82;;
79747;SDS011;69232;47.488;19.268;2023-10-19T11:38:54;30.77;;;15.18;;
79747;SDS011;69232;47.488;19.268;2023-10-19T11:41:20;31.85;;;16.58;;
79747;SDS011;69232;47.488;19.268;2023-10-19T11:43:46;30.48;;;16.33;;
79747;SDS011;69232;47.488;19.268;2023-10-19T11:46:13;26.25;;;14.60;;
79747;SDS011;69232;47.488;19.268;2023-10-19T11:48:43;32.03;;;15.60;;
79747;SDS011;69232;47.488;19.268;2023-10-19T11:51:09;31.08;;;15.70;;
79747;SDS011;69232;47.488;19.268;2023-10-19T11:53:38;32.08;;;15.77;;
79747;SDS011;69232;47.488;19.268;2023-10-19T11:56:08;32.78;;;16.10;;
79747;SDS011;69232;47.488;19.268;2023-10-19T11:58:34;30.63;;;15.85;;
79747;SDS011;69232;47.488;19.268;2023-10-19T12:01:02;25.83;;;14.52;;
79747;SDS011;69232;47.488;19.268;2023-10-19T12:03:30;31.30;;;15.77;;
79747;SDS011;69232;47.488;19.268;2023-10-19T12:05:56;31.17;;;15.13;;
79747;SDS011;69232;47.488;19.268;2023-10-19T12:08:23;26.58;;;14.70;;
79747;SDS011;69232;47.488;19.268;2023-10-19T12:10:49;29.25;;;15.02;;
79747;SDS011;69232;47.488;19.268;2023-10-19T12:13:15;28.10;;;15.10;;
79747;SDS011;69232;47.488;19.268;2023-10-19T12:15:41;30.10;;;15.45;;
79747;SDS011;69232;47.488;19.268;2023-10-19T12:18:06;30.55;;;14.63;;
79747;SDS011;69232;47.488;19.268;2023-10-19T12:20:33;31.45;;;14.65;;
79747;SDS011;69232;47.488;19.268;2023-10-19T12:23:00;28.90;;;15.10;;
79747;SDS011;69232;47.488;19.268;2023-10-19T12:25:26;29.30;;;15.15;;
79747;SDS011;69232;47.488;19.268;2023-10-19T12:27:54;27.75;;;14.55;;
79747;SDS011;69232;47.488;19.268;2023-10-19T12:30:21;28.25;;;13.82;;
79747;SDS011;69232;47.488;19.268;2023-10-19T12:32:50;29.15;;;13.50;;
79747;SDS011;69232;47.488;19.268;2023-10-19T12:35:16;24.33;;;14.00;;
79747;SDS011;69232;47.488;19.268;2023-10-19T12:37:44;23.50;;;14.25;;
79747;SDS011;69232;47.488;19.268;2023-10-19T12:40:17;29.23;;;15.38;;
79747;SDS011;69232;47.488;19.268;2023-10-19T12:42:52;29.70;;;14.70;;
79747;SDS011;69232;47.488;19.268;2023-10-19T12:45:20;25.92;;;13.70;;
79747;SDS011;69232;47.488;19.268;2023-10-19T12:47:49;25.55;;;14.38;;
79747;SDS011;69232;47.488;19.268;2023-10-19T12:50:17;25.45;;;13.50;;
79747;SDS011;69232;47.488;19.268;2023-10-19T12:52:44;24.55;;;13.70;;
79747;SDS011;69232;47.488;19.268;2023-10-19T12:55:10;24.33;;;13.57;;
79747;SDS011;69232;47.488;19.268;2023-10-19T12:57:36;28.58;;;14.55;;
79747;SDS011;69232;47.488;19.268;2023-10-19T13:00:01;29.48;;;14.10;;
79747;SDS011;69232;47.488;19.268;2023-10-19T13:02:47;27.83;;;14.88;;
79747;SDS011;69232;47.488;19.268;2023-10-19T13:05:12;31.42;;;15.40;;
79747;SDS011;69232;47.488;19.268;2023-10-19T13:07:41;29.17;;;14.20;;
79747;SDS011;69232;47.488;19.268;2023-10-19T13:10:06;32.33;;;14.60;;
79747;SDS011;69232;47.488;19.268;2023-10-19T13:12:32;28.75;;;13.60;;
79747;SDS011;69232;47.488;19.268;2023-10-19T13:14:57;27.70;;;14.57;;
79747;SDS011;69232;47.488;19.268;2023-10-19T13:17:23;26.70;;;14.18;;
79747;SDS011;69232;47.488;19.268;2023-10-19T13:19:49;27.92;;;14.57;;
79747;SDS011;69232;47.488;19.268;2023-10-19T13:22:20;29.48;;;14.90;;
79747;SDS011;69232;47.488;19.268;2023-10-19T13:24:46;27.75;;;14.43;;
79747;SDS011;69232;47.488;19.268;2023-10-19T13:27:12;28.27;;;14.18;;
79747;SDS011;69232;47.488;19.268;2023-10-19T13:29:37;34.00;;;14.43;;
79747;SDS011;69232;47.488;19.268;2023-10-19T13:32:06;27.90;;;14.45;;
79747;SDS011;69232;47.488;19.268;2023-10-19T13:34:32;27.63;;;15.45;;
79747;SDS011;69232;47.488;19.268;2023-10-19T13:36:58;29.63;;;15.02;;
79747;SDS011;69232;47.488;19.268;2023-10-19T13:39:23;28.23;;;15.60;;
79747;SDS011;69232;47.488;19.268;2023-10-19T13:41:50;29.42;;;15.05;;
79747;SDS011;69232;47.488;19.268;2023-10-19T13:44:19;31.48;;;15.65;;
79747;SDS011;69232;47.488;19.268;2023-10-19T13:46:48;36.42;;;16.48;;
79747;SDS011;69232;47.488;19.268;2023-10-19T13:51:43;28.98;;;14.98;;
79747;SDS011;69232;47.488;19.268;2023-10-19T13:54:09;30.45;;;16.17;;
79747;SDS011;69232;47.488;19.268;2023-10-19T13:56:34;28.15;;;15.35;;
79747;SDS011;69232;47.488;19.268;2023-10-19T13:59:00;28.35;;;15.43;;
79747;SDS011;69232;47.488;19.268;2023-10-19T14:01:26;30.42;;;15.40;;
79747;SDS011;69232;47.488;19.268;2023-10-19T14:03:54;33.33;;;15.18;;
79747;SDS011;69232;47.488;19.268;2023-10-19T14:06:22;35.90;;;16.80;;
79747;SDS011;69232;47.488;19.268;2023-10-19T14:08:49;34.83;;;16.92;;
79747;SDS011;69232;47.488;19.268;2023-10-19T14:11:14;35.17;;;17.15;;
79747;SDS011;69232;47.488;19.268;2023-10-19T14:13:40;34.17;;;17.45;;
79747;SDS011;69232;47.488;19.268;2023-10-19T14:16:09;36.15;;;16.58;;
79747;SDS011;69232;47.488;19.268;2023-10-19T14:18:35;38.53;;;17.80;;
79747;SDS011;69232;47.488;19.268;2023-10-19T14:21:01;39.40;;;16.63;;
79747;SDS011;69232;47.488;19.268;2023-10-19T14:23:45;39.72;;;18.10;;
79747;SDS011;69232;47.488;19.268;2023-10-19T14:26:10;37.45;;;18.67;;
79747;SDS011;69232;47.488;19.268;2023-10-19T14:28:37;38.90;;;17.42;;
79747;SDS011;69232;47.488;19.268;2023-10-19T14:31:03;38.00;;;16.15;;
79747;SDS011;69232;47.488;19.268;2023-10-19T14:33:32;39.67;;;17.15;;
79747;SDS011;69232;47.488;19.268;2023-10-19T14:36:00;38.20;;;17.02;;
79747;SDS011;69232;47.488;19.268;2023-10-19T14:38:26;37.47;;;16.90;;
79747;SDS011;69232;47.488;19.268;2023-10-19T14:40:52;32.05;;;16.00;;